createdAt,value
2019-03-15T00:00:35.312Z,12.20
2019-03-15T00:01:35.292Z,12.50
2019-03-15T00:02:35.283Z,11.90
2019-03-15T00:03:35.284Z,12.90
2019-03-15T00:04:35.313Z,13.40
2019-03-15T00:05:35.253Z,12.30
2019-03-15T00:06:35.243Z,11.00
2019-03-15T00:07:35.301Z,13.10
2019-03-15T00:08:35.232Z,14.40
2019-03-15T00:09:35.215Z,13.80
2019-03-15T00:10:35.236Z,13.00
2019-03-15T00:11:35.215Z,13.00
2019-03-15T00:12:35.186Z,11.20
2019-03-15T00:13:35.173Z,14.30
2019-03-15T00:14:35.167Z,11.70
2019-03-15T00:15:35.153Z,13.00
2019-03-15T00:16:35.176Z,12.30
2019-03-15T00:17:35.134Z,13.10
2019-03-15T00:18:48.463Z,12.30
2019-03-15T00:19:35.096Z,14.20
2019-03-15T00:20:35.097Z,12.80
2019-03-15T00:21:35.073Z,14.50
2019-03-15T00:22:35.203Z,10.70
2019-03-15T00:23:35.054Z,12.80
2019-03-15T00:24:35.049Z,10.50
2019-03-15T00:25:35.040Z,10.70
2019-03-15T00:26:35.028Z,10.30
2019-03-15T00:27:35.035Z,10.60
2019-03-15T00:28:35.001Z,11.00
2019-03-15T00:29:34.993Z,13.00
2019-03-15T00:30:34.986Z,12.00
2019-03-15T00:31:34.976Z,12.00
2019-03-15T00:32:34.984Z,11.10
2019-03-15T00:33:34.985Z,12.30
2019-03-15T00:34:34.941Z,11.00
2019-03-15T00:35:35.861Z,10.40
2019-03-15T00:36:34.918Z,9.70
2019-03-15T00:37:34.902Z,10.40
2019-03-15T00:38:34.899Z,10.60
2019-03-15T00:39:34.948Z,10.70
2019-03-15T00:40:34.892Z,10.20
2019-03-15T00:41:34.868Z,10.10
2019-03-15T00:42:34.864Z,12.70
2019-03-15T00:43:34.845Z,9.90
2019-03-15T00:44:34.851Z,9.70
2019-03-15T00:45:34.908Z,10.10
2019-03-15T00:46:34.818Z,9.60
2019-03-15T00:47:34.814Z,9.80
2019-03-15T00:48:34.792Z,9.70
2019-03-15T00:49:47.476Z,9.50
2019-03-15T00:50:34.758Z,8.90
2019-03-15T00:51:34.786Z,10.20
2019-03-15T00:52:34.745Z,9.40
2019-03-15T00:53:34.732Z,12.50
2019-03-15T00:54:34.718Z,9.00
2019-03-15T00:55:34.712Z,7.90
2019-03-15T00:56:34.732Z,7.60
2019-03-15T00:57:34.768Z,9.70
2019-03-15T00:58:34.677Z,10.90
2019-03-15T00:59:34.708Z,9.50
2019-03-15T01:00:34.657Z,9.50
2019-03-15T01:01:34.643Z,9.70
2019-03-15T01:02:34.681Z,10.20
2019-03-15T01:03:34.723Z,12.00
2019-03-15T01:04:34.621Z,9.50
2019-03-15T01:05:34.632Z,10.80
2019-03-15T01:06:34.587Z,10.00
2019-03-15T01:07:34.592Z,9.90
2019-03-15T01:08:35.441Z,12.00
2019-03-15T01:09:34.597Z,9.20
2019-03-15T01:10:34.546Z,10.10
2019-03-15T01:11:34.537Z,10.50
2019-03-15T01:12:34.532Z,9.40
2019-03-15T01:13:34.526Z,11.60
2019-03-15T01:14:34.583Z,10.20
2019-03-15T01:15:34.515Z,9.70
2019-03-15T01:16:34.772Z,12.20
2019-03-15T01:17:34.474Z,11.00
2019-03-15T01:18:34.464Z,10.50
2019-03-15T01:19:34.449Z,10.10
2019-03-15T01:20:47.040Z,11.30
2019-03-15T01:21:34.424Z,10.90
2019-03-15T01:22:34.419Z,9.50
2019-03-15T01:23:34.402Z,11.20
2019-03-15T01:24:34.396Z,12.10
2019-03-15T01:25:34.388Z,11.60
2019-03-15T01:26:34.415Z,9.90
2019-03-15T01:27:34.364Z,12.90
2019-03-15T01:28:34.352Z,10.90
2019-03-15T01:29:34.344Z,10.40
2019-03-15T01:30:34.330Z,10.20
2019-03-15T01:31:34.319Z,10.30
2019-03-15T01:32:34.353Z,11.40
2019-03-15T01:33:34.298Z,12.90
2019-03-15T01:34:34.294Z,9.70
2019-03-15T01:35:34.301Z,10.30
2019-03-15T01:36:34.275Z,11.50
2019-03-15T01:37:34.269Z,12.40
2019-03-15T01:38:34.262Z,9.60
2019-03-15T01:39:34.258Z,11.80
2019-03-15T01:40:34.218Z,9.80
2019-03-15T01:41:34.216Z,11.70
2019-03-15T01:42:34.211Z,12.00
2019-03-15T01:43:34.237Z,11.90
2019-03-15T01:44:34.185Z,11.40
2019-03-15T01:45:34.183Z,11.60
2019-03-15T01:46:34.197Z,9.80
2019-03-15T01:47:34.144Z,9.00
2019-03-15T01:48:34.144Z,10.80
2019-03-15T01:49:34.209Z,10.80
2019-03-15T01:50:34.128Z,10.80
2019-03-15T01:51:47.202Z,10.50
2019-03-15T01:52:34.092Z,11.90
2019-03-15T01:53:34.087Z,12.80
2019-03-15T01:54:34.071Z,9.30
2019-03-15T01:55:34.074Z,8.80
2019-03-15T01:56:34.053Z,10.40
2019-03-15T01:57:34.039Z,10.50
2019-03-15T01:58:34.033Z,9.70
2019-03-15T01:59:34.018Z,10.30
2019-03-15T02:00:34.040Z,10.60
2019-03-15T02:01:34.008Z,10.30
2019-03-15T02:02:33.991Z,10.90
2019-03-15T02:03:33.992Z,10.20
2019-03-15T02:04:33.979Z,9.40
2019-03-15T02:05:33.955Z,10.30
2019-03-15T02:06:33.959Z,10.40
2019-03-15T02:07:34.632Z,11.70
2019-03-15T02:08:33.932Z,10.00
2019-03-15T02:09:33.924Z,9.10
2019-03-15T02:10:33.941Z,9.00
2019-03-15T02:11:33.900Z,9.30
2019-03-15T02:12:33.921Z,10.70
2019-03-15T02:13:33.874Z,12.00
2019-03-15T02:14:33.858Z,10.10
2019-03-15T02:15:33.904Z,10.80
2019-03-15T02:16:34.456Z,11.20
2019-03-15T02:17:33.824Z,9.50
2019-03-15T02:18:33.829Z,10.20
2019-03-15T02:19:33.796Z,9.50
2019-03-15T02:20:33.954Z,11.00
2019-03-15T02:21:33.800Z,8.70
2019-03-15T02:22:46.929Z,8.40
2019-03-15T02:23:33.801Z,9.90
2019-03-15T02:24:33.752Z,11.50
2019-03-15T02:25:33.739Z,9.40
2019-03-15T02:26:33.728Z,8.90
2019-03-15T02:27:33.711Z,11.20
2019-03-15T02:28:33.711Z,8.90
2019-03-15T02:29:33.730Z,9.90
2019-03-15T02:30:33.807Z,9.60
2019-03-15T02:31:33.672Z,9.70
2019-03-15T02:32:33.667Z,10.60
2019-03-15T02:33:34.098Z,8.90
2019-03-15T02:34:33.639Z,9.70
2019-03-15T02:35:33.670Z,10.90
2019-03-15T02:36:33.644Z,9.80
2019-03-15T02:37:33.994Z,8.80
2019-03-15T02:38:33.598Z,10.30
2019-03-15T02:39:33.585Z,11.30
2019-03-15T02:40:33.573Z,11.80
2019-03-15T02:41:33.583Z,9.40
2019-03-15T02:42:33.559Z,15.20
2019-03-15T02:43:33.539Z,16.60
2019-03-15T02:44:33.548Z,14.70
2019-03-15T02:45:33.567Z,14.70
2019-03-15T02:46:33.539Z,12.20
2019-03-15T02:47:33.501Z,11.10
2019-03-15T02:48:33.497Z,10.90
2019-03-15T02:49:34.827Z,11.10
2019-03-15T02:50:33.485Z,9.70
2019-03-15T02:51:33.462Z,11.30
2019-03-15T02:52:33.608Z,11.30
2019-03-15T02:53:46.226Z,10.00
2019-03-15T02:54:33.440Z,9.50
2019-03-15T02:55:33.407Z,9.40
2019-03-15T02:56:33.404Z,10.10
2019-03-15T02:57:33.438Z,12.00
2019-03-15T02:58:33.377Z,11.80
2019-03-15T02:59:33.373Z,11.20
2019-03-15T03:00:33.364Z,10.30
2019-03-15T03:01:33.976Z,10.80
2019-03-15T03:02:33.336Z,11.80
2019-03-15T03:03:33.364Z,9.40
2019-03-15T03:04:33.365Z,11.20
2019-03-15T03:05:34.327Z,8.80
2019-03-15T03:06:33.300Z,10.10
2019-03-15T03:07:33.307Z,9.70
2019-03-15T03:08:33.281Z,9.20
2019-03-15T03:09:34.182Z,10.50
2019-03-15T03:10:33.255Z,12.00
2019-03-15T03:11:33.252Z,10.20
2019-03-15T03:12:33.231Z,12.20
2019-03-15T03:13:33.220Z,10.30
2019-03-15T03:14:33.314Z,10.00
2019-03-15T03:15:33.213Z,10.40
2019-03-15T03:16:33.188Z,9.50
2019-03-15T03:17:33.181Z,9.70
2019-03-15T03:18:34.557Z,9.90
2019-03-15T03:19:33.165Z,10.50
2019-03-15T03:20:33.164Z,8.10
2019-03-15T03:21:33.141Z,9.00
2019-03-15T03:22:33.132Z,9.40
2019-03-15T03:23:33.201Z,9.40
2019-03-15T03:24:45.777Z,9.50
2019-03-15T03:25:33.126Z,8.90
2019-03-15T03:26:33.083Z,8.40
2019-03-15T03:27:34.041Z,9.60
2019-03-15T03:28:33.066Z,9.40
2019-03-15T03:29:33.050Z,9.10
2019-03-15T03:30:33.054Z,8.70
2019-03-15T03:31:33.297Z,9.50
2019-03-15T03:32:33.025Z,8.30
2019-03-15T03:33:33.007Z,8.40
2019-03-15T03:34:33.050Z,8.20
2019-03-15T03:35:32.987Z,7.70
2019-03-15T03:36:32.977Z,9.00
2019-03-15T03:37:32.994Z,8.70
2019-03-15T03:38:32.949Z,10.40
2019-03-15T03:39:34.329Z,8.90
2019-03-15T03:40:32.965Z,8.60
2019-03-15T03:41:32.938Z,8.50
2019-03-15T03:42:32.913Z,7.60
2019-03-15T03:43:32.913Z,7.30
2019-03-15T03:44:32.897Z,7.00
2019-03-15T03:45:32.870Z,7.20
2019-03-15T03:46:32.868Z,7.10
2019-03-15T03:47:33.332Z,6.90
2019-03-15T03:48:32.889Z,8.10
2019-03-15T03:49:32.826Z,7.70
2019-03-15T03:50:32.816Z,9.20
2019-03-15T03:51:32.807Z,6.90
2019-03-15T03:52:32.795Z,6.90
2019-03-15T03:53:32.793Z,7.40
2019-03-15T03:54:32.789Z,6.80
2019-03-15T03:55:46.002Z,6.60
2019-03-15T03:56:32.751Z,7.00
2019-03-15T03:57:32.852Z,6.60
2019-03-15T03:58:32.736Z,7.70
2019-03-15T03:59:32.760Z,7.10
2019-03-15T04:00:32.718Z,7.50
2019-03-15T04:01:32.703Z,7.50
2019-03-15T04:02:33.158Z,6.80
2019-03-15T04:03:32.681Z,6.60
2019-03-15T04:04:32.672Z,6.70
2019-03-15T04:05:32.709Z,6.20
2019-03-15T04:06:32.651Z,7.40
2019-03-15T04:07:32.640Z,7.40
2019-03-15T04:08:32.647Z,6.50
2019-03-15T04:09:32.623Z,6.90
2019-03-15T04:10:32.613Z,7.00
2019-03-15T04:11:32.648Z,6.50
2019-03-15T04:12:32.589Z,7.30
2019-03-15T04:13:32.584Z,6.60
2019-03-15T04:14:32.578Z,6.60
2019-03-15T04:15:32.547Z,6.40
2019-03-15T04:16:32.548Z,6.40
2019-03-15T04:17:32.603Z,6.50
2019-03-15T04:18:32.527Z,7.30
2019-03-15T04:19:32.516Z,6.80
2019-03-15T04:20:32.496Z,6.20
2019-03-15T04:21:32.516Z,7.10
2019-03-15T04:22:32.473Z,6.90
2019-03-15T04:23:32.503Z,6.30
2019-03-15T04:24:32.456Z,7.20
2019-03-15T04:25:32.447Z,6.30
2019-03-15T04:26:44.254Z,6.80
2019-03-15T04:27:32.425Z,6.50
2019-03-15T04:28:32.405Z,6.30
2019-03-15T04:29:32.517Z,6.30
2019-03-15T04:30:32.392Z,7.20
2019-03-15T04:31:32.381Z,7.00
2019-03-15T04:32:32.387Z,6.10
2019-03-15T04:33:32.355Z,6.90
2019-03-15T04:34:32.364Z,6.80
2019-03-15T04:35:32.344Z,6.80
2019-03-15T04:36:32.326Z,7.50
2019-03-15T04:37:32.308Z,6.20
2019-03-15T04:38:32.356Z,6.20
2019-03-15T04:39:32.289Z,6.30
2019-03-15T04:40:32.285Z,6.60
2019-03-15T04:41:32.281Z,6.00
2019-03-15T04:42:32.256Z,6.70
2019-03-15T04:43:32.257Z,6.80
2019-03-15T04:44:32.236Z,6.60
2019-03-15T04:45:32.261Z,7.50
2019-03-15T04:46:32.223Z,6.30
2019-03-15T04:47:32.213Z,6.70
2019-03-15T04:48:32.199Z,6.60
2019-03-15T04:49:32.208Z,6.10
2019-03-15T04:50:32.186Z,6.30
2019-03-15T04:51:32.189Z,7.40
2019-03-15T04:52:32.167Z,5.90
2019-03-15T04:53:32.145Z,5.90
2019-03-15T04:54:32.132Z,6.40
2019-03-15T04:55:32.167Z,6.20
2019-03-15T04:56:32.103Z,6.20
2019-03-15T04:57:44.258Z,6.20
2019-03-15T04:58:32.084Z,6.90
2019-03-15T04:59:32.069Z,5.90
2019-03-15T05:00:32.065Z,6.20
2019-03-15T05:01:32.049Z,6.10
2019-03-15T05:02:32.043Z,5.90
2019-03-15T05:03:32.061Z,6.00
2019-03-15T05:04:32.020Z,6.20
2019-03-15T05:05:32.023Z,6.10
2019-03-15T05:06:31.998Z,6.40
2019-03-15T05:07:31.985Z,6.40
2019-03-15T05:08:32.011Z,6.80
2019-03-15T05:09:32.002Z,5.80
2019-03-15T05:10:31.950Z,6.00
2019-03-15T05:11:31.948Z,6.10
2019-03-15T05:12:31.951Z,6.40
2019-03-15T05:13:31.938Z,5.90
2019-03-15T05:14:31.960Z,5.60
2019-03-15T05:15:31.902Z,5.80
2019-03-15T05:16:31.884Z,6.10
2019-03-15T05:17:31.871Z,6.30
2019-03-15T05:18:32.013Z,6.10
2019-03-15T05:19:31.903Z,6.20
2019-03-15T05:20:31.881Z,5.90
2019-03-15T05:21:31.834Z,5.70
2019-03-15T05:22:31.818Z,5.70
2019-03-15T05:23:31.810Z,6.80
2019-03-15T05:24:31.803Z,6.10
2019-03-15T05:25:31.803Z,5.50
2019-03-15T05:26:31.822Z,5.80
2019-03-15T05:27:31.770Z,5.80
2019-03-15T05:28:43.926Z,6.20
2019-03-15T05:29:31.745Z,6.00
2019-03-15T05:30:31.735Z,5.80
2019-03-15T05:31:31.718Z,5.70
2019-03-15T05:32:31.718Z,5.60
2019-03-15T05:33:31.699Z,5.70
2019-03-15T05:34:31.692Z,5.90
2019-03-15T05:35:31.684Z,5.90
2019-03-15T05:36:31.666Z,5.60
2019-03-15T05:37:31.694Z,5.50
2019-03-15T05:38:34.693Z,5.80
2019-03-15T05:39:31.652Z,6.40
2019-03-15T05:40:31.625Z,6.40
2019-03-15T05:41:31.616Z,6.60
2019-03-15T05:42:31.603Z,6.70
2019-03-15T05:43:31.631Z,6.30
2019-03-15T05:44:31.579Z,6.30
2019-03-15T05:45:31.578Z,6.70
2019-03-15T05:46:31.568Z,6.70
2019-03-15T05:47:31.554Z,6.30
2019-03-15T05:48:31.537Z,6.10
2019-03-15T05:49:31.564Z,6.60
2019-03-15T05:50:31.511Z,6.90
2019-03-15T05:51:31.503Z,7.10
2019-03-15T05:52:31.514Z,7.50
2019-03-15T05:53:31.488Z,7.60
2019-03-15T05:54:31.470Z,7.20
2019-03-15T05:55:31.803Z,8.30
2019-03-15T05:56:31.441Z,7.60
2019-03-15T05:57:31.444Z,7.60
2019-03-15T05:58:31.429Z,7.30
2019-03-15T05:59:42.288Z,8.00
2019-03-15T06:00:31.442Z,7.80
2019-03-15T06:01:31.394Z,8.00
2019-03-15T06:02:31.445Z,7.30
2019-03-15T06:03:31.365Z,7.70
2019-03-15T06:04:31.361Z,8.40
2019-03-15T06:05:31.349Z,8.20
2019-03-15T06:06:31.416Z,7.90
2019-03-15T06:07:31.327Z,7.90
2019-03-15T06:08:31.316Z,10.00
2019-03-15T06:09:31.305Z,9.20
2019-03-15T06:10:31.319Z,8.70
2019-03-15T06:11:31.287Z,8.40
2019-03-15T06:12:31.325Z,8.90
2019-03-15T06:13:31.259Z,8.20
2019-03-15T06:14:31.245Z,8.30
2019-03-15T06:15:31.252Z,9.60
2019-03-15T06:16:31.242Z,9.30
2019-03-15T06:17:31.213Z,9.60
2019-03-15T06:18:31.229Z,9.00
2019-03-15T06:19:31.211Z,9.60
2019-03-15T06:20:31.190Z,8.70
2019-03-15T06:21:31.789Z,9.10
2019-03-15T06:22:31.158Z,9.00
2019-03-15T06:23:31.229Z,8.70
2019-03-15T06:24:31.173Z,9.40
2019-03-15T06:25:31.128Z,9.30
2019-03-15T06:26:31.120Z,9.20
2019-03-15T06:27:31.402Z,8.40
2019-03-15T06:28:31.108Z,9.70
2019-03-15T06:29:31.087Z,8.60
2019-03-15T06:30:44.844Z,8.60
2019-03-15T06:31:31.126Z,8.60
2019-03-15T06:32:31.053Z,8.40
2019-03-15T06:33:31.096Z,9.50
2019-03-15T06:34:31.027Z,8.50
2019-03-15T06:35:31.010Z,8.40
2019-03-15T06:36:31.035Z,7.70
2019-03-15T06:37:31.082Z,8.10
2019-03-15T06:38:33.394Z,9.20
2019-03-15T06:39:30.967Z,7.40
2019-03-15T06:40:30.976Z,8.10
2019-03-15T06:41:30.953Z,7.60
2019-03-15T06:42:30.963Z,7.80
2019-03-15T06:43:30.926Z,8.70
2019-03-15T06:44:30.915Z,8.30
2019-03-15T06:45:32.065Z,8.70
2019-03-15T06:46:30.899Z,8.30
2019-03-15T06:47:30.881Z,8.10
2019-03-15T06:48:30.908Z,9.20
2019-03-15T06:49:30.855Z,8.30
2019-03-15T06:50:30.975Z,9.30
2019-03-15T06:51:30.854Z,8.30
2019-03-15T06:52:30.826Z,8.60
2019-03-15T06:53:30.820Z,8.40
2019-03-15T06:54:30.808Z,9.10
2019-03-15T06:55:30.821Z,8.90
2019-03-15T06:56:30.778Z,8.60
2019-03-15T06:57:30.886Z,9.90
2019-03-15T06:58:30.755Z,8.90
2019-03-15T06:59:30.809Z,9.20
2019-03-15T07:00:30.757Z,9.20
2019-03-15T07:01:43.412Z,9.70
2019-03-15T07:02:30.715Z,9.10
2019-03-15T07:03:30.710Z,9.20
2019-03-15T07:04:30.693Z,8.90
2019-03-15T07:05:30.690Z,9.70
2019-03-15T07:06:30.671Z,9.90
2019-03-15T07:07:30.656Z,9.60
2019-03-15T07:08:30.653Z,9.70
2019-03-15T07:09:31.024Z,9.80
2019-03-15T07:10:30.657Z,9.50
2019-03-15T07:11:30.638Z,9.30
2019-03-15T07:12:30.599Z,9.70
2019-03-15T07:13:30.594Z,9.60
2019-03-15T07:14:30.589Z,9.80
2019-03-15T07:15:30.578Z,9.60
2019-03-15T07:16:30.583Z,9.80
2019-03-15T07:17:30.553Z,9.10
2019-03-15T07:18:30.540Z,9.60
2019-03-15T07:19:30.754Z,10.40
2019-03-15T07:20:30.541Z,10.40
2019-03-15T07:21:30.521Z,11.10
2019-03-15T07:22:30.502Z,10.40
2019-03-15T07:23:30.687Z,9.70
2019-03-15T07:24:30.474Z,9.50
2019-03-15T07:25:31.368Z,11.20
2019-03-15T07:26:30.473Z,9.90
2019-03-15T07:27:30.561Z,10.00
2019-03-15T07:28:30.437Z,9.40
2019-03-15T07:29:30.418Z,9.70
2019-03-15T07:30:30.406Z,10.80
2019-03-15T07:31:30.398Z,9.60
2019-03-15T07:32:42.936Z,10.20
2019-03-15T07:33:30.398Z,10.70
2019-03-15T07:34:30.368Z,10.20
2019-03-15T07:35:30.352Z,10.70
2019-03-15T07:36:30.444Z,10.20
2019-03-15T07:37:30.503Z,10.90
2019-03-15T07:38:30.363Z,10.20
2019-03-15T07:39:30.309Z,9.70
2019-03-15T07:40:30.305Z,10.60
2019-03-15T07:41:30.295Z,10.40
2019-03-15T07:42:30.276Z,10.70
2019-03-15T07:43:30.263Z,10.10
2019-03-15T07:44:30.331Z,9.90
2019-03-15T07:45:30.249Z,10.50
2019-03-15T07:46:30.278Z,9.40
2019-03-15T07:47:30.404Z,9.50
2019-03-15T07:48:30.280Z,10.40
2019-03-15T07:49:30.197Z,9.70
2019-03-15T07:50:30.295Z,9.30
2019-03-15T07:51:30.251Z,8.40
2019-03-15T07:52:30.173Z,9.70
2019-03-15T07:53:30.390Z,9.10
2019-03-15T07:54:37.900Z,9.30
2019-03-15T07:55:31.129Z,8.70
2019-03-15T07:56:30.130Z,9.40
2019-03-15T07:57:30.124Z,9.10
2019-03-15T07:58:30.141Z,9.40
2019-03-15T07:59:30.161Z,8.50
2019-03-15T08:00:30.165Z,8.90
2019-03-15T08:01:30.072Z,8.50
2019-03-15T08:02:30.053Z,7.80
2019-03-15T08:03:41.944Z,8.70
2019-03-15T08:04:30.033Z,7.90
2019-03-15T08:05:30.040Z,7.90
2019-03-15T08:06:34.980Z,8.20
2019-03-15T08:07:36.150Z,7.50
2019-03-15T08:08:31.046Z,8.00
2019-03-15T08:09:29.982Z,6.90
2019-03-15T08:10:29.978Z,7.60
2019-03-15T08:11:29.980Z,7.50
2019-03-15T08:12:29.936Z,7.00
2019-03-15T08:13:29.937Z,7.40
2019-03-15T08:14:29.946Z,6.40
2019-03-15T08:15:29.901Z,6.20
2019-03-15T08:16:29.906Z,6.60
2019-03-15T08:17:29.892Z,6.40
2019-03-15T08:18:29.876Z,5.80
2019-03-15T08:19:29.912Z,6.20
2019-03-15T08:20:29.861Z,6.40
2019-03-15T08:21:29.924Z,6.40
2019-03-15T08:22:29.837Z,5.40
2019-03-15T08:23:29.822Z,5.50
2019-03-15T08:24:30.065Z,5.90
2019-03-15T08:25:29.899Z,5.80
2019-03-15T08:26:30.340Z,5.40
2019-03-15T08:27:29.779Z,6.20
2019-03-15T08:28:29.766Z,5.50
2019-03-15T08:29:29.755Z,5.90
2019-03-15T08:30:29.747Z,6.70
2019-03-15T08:31:29.746Z,5.90
2019-03-15T08:32:29.713Z,5.80
2019-03-15T08:33:29.708Z,5.60
2019-03-15T08:34:42.067Z,5.20
2019-03-15T08:35:29.683Z,5.10
2019-03-15T08:36:29.758Z,5.50
2019-03-15T08:37:29.666Z,5.00
2019-03-15T08:38:29.652Z,4.70
2019-03-15T08:39:29.633Z,4.90
2019-03-15T08:40:29.627Z,4.80
2019-03-15T08:41:29.625Z,4.30
2019-03-15T08:42:29.644Z,4.90
2019-03-15T08:43:29.595Z,4.70
2019-03-15T08:44:29.577Z,4.00
2019-03-15T08:45:29.636Z,4.30
2019-03-15T08:46:29.591Z,4.40
2019-03-15T08:47:29.565Z,4.10
2019-03-15T08:48:31.794Z,4.70
2019-03-15T08:49:29.531Z,4.20
2019-03-15T08:50:29.535Z,3.50
2019-03-15T08:51:29.525Z,4.00
2019-03-15T08:52:29.791Z,3.90
2019-03-15T08:53:29.489Z,4.00
2019-03-15T08:54:29.656Z,4.10
2019-03-15T08:55:29.483Z,3.90
2019-03-15T08:56:30.732Z,4.10
2019-03-15T08:57:29.435Z,3.50
2019-03-15T08:58:29.441Z,3.90
2019-03-15T08:59:29.582Z,3.60
2019-03-15T09:00:29.447Z,3.80
2019-03-15T09:01:29.389Z,3.90
2019-03-15T09:02:29.373Z,3.50
2019-03-15T09:03:29.366Z,3.30
2019-03-15T09:04:29.389Z,3.30
2019-03-15T09:05:42.058Z,3.40
2019-03-15T09:06:29.344Z,3.00
2019-03-15T09:07:29.316Z,2.90
2019-03-15T09:08:29.305Z,3.20
2019-03-15T09:09:29.375Z,3.10
2019-03-15T09:10:29.281Z,3.30
2019-03-15T09:11:29.288Z,2.70
2019-03-15T09:12:29.264Z,2.70
2019-03-15T09:13:29.300Z,2.60
2019-03-15T09:14:29.252Z,3.00
2019-03-15T09:15:30.824Z,2.90
2019-03-15T09:16:29.241Z,2.80
2019-03-15T09:17:29.219Z,3.20
2019-03-15T09:18:29.207Z,2.80
2019-03-15T09:19:29.515Z,2.40
2019-03-15T09:20:30.044Z,2.90
2019-03-15T09:21:29.159Z,2.80
2019-03-15T09:22:29.536Z,2.50
2019-03-15T09:23:29.136Z,2.80
2019-03-15T09:24:29.126Z,2.40
2019-03-15T09:25:29.112Z,2.50
2019-03-15T09:26:29.160Z,2.60
2019-03-15T09:27:29.120Z,2.40
2019-03-15T09:28:29.083Z,2.20
2019-03-15T09:29:29.074Z,1.90
2019-03-15T09:30:29.069Z,2.40
2019-03-15T09:31:36.987Z,2.50
2019-03-15T09:32:30.068Z,2.30
2019-03-15T09:33:29.048Z,2.40
2019-03-15T09:34:29.024Z,2.70
2019-03-15T09:35:29.016Z,2.40
2019-03-15T09:36:50.022Z,1.90
2019-03-15T09:37:29.979Z,2.50
2019-03-15T09:38:29.015Z,2.60
2019-03-15T09:39:28.961Z,2.10
2019-03-15T09:40:28.947Z,2.20
2019-03-15T09:41:32.184Z,2.10
2019-03-15T09:42:29.941Z,1.90
2019-03-15T09:43:28.919Z,2.20
2019-03-15T09:44:28.962Z,1.60
2019-03-15T09:45:28.904Z,2.10
2019-03-15T09:46:28.884Z,2.10
2019-03-15T09:47:28.907Z,1.50
2019-03-15T09:48:28.878Z,2.10
2019-03-15T09:49:28.858Z,2.10
2019-03-15T09:50:36.031Z,1.70
2019-03-15T09:51:29.835Z,1.60
2019-03-15T09:52:28.823Z,1.60
2019-03-15T09:53:28.853Z,1.20
2019-03-15T09:54:28.803Z,1.50
2019-03-15T09:55:33.165Z,2.10
2019-03-15T09:56:28.788Z,1.30
2019-03-15T09:57:28.797Z,1.20
2019-03-15T09:58:28.751Z,1.40
2019-03-15T09:59:28.803Z,2.00
2019-03-15T10:00:28.738Z,1.90
2019-03-15T10:01:35.261Z,1.80
2019-03-15T10:02:30.867Z,1.40
2019-03-15T10:03:28.709Z,1.30
2019-03-15T10:04:28.686Z,1.40
2019-03-15T10:05:28.697Z,1.50
2019-03-15T10:06:28.704Z,1.60
2019-03-15T10:07:43.354Z,2.30
2019-03-15T10:08:28.637Z,1.40
2019-03-15T10:09:28.626Z,1.40
2019-03-15T10:10:28.617Z,1.40
2019-03-15T10:11:28.631Z,1.40
2019-03-15T10:12:28.631Z,1.60
2019-03-15T10:13:28.589Z,1.20
2019-03-15T10:14:28.583Z,1.40
2019-03-15T10:15:28.560Z,0.90
2019-03-15T10:16:28.558Z,1.60
2019-03-15T10:17:28.542Z,1.40
2019-03-15T10:18:28.552Z,1.00
2019-03-15T10:19:29.872Z,1.70
2019-03-15T10:20:28.518Z,1.20
2019-03-15T10:21:28.495Z,1.10
2019-03-15T10:22:28.529Z,1.50
2019-03-15T10:23:28.483Z,1.00
2019-03-15T10:24:28.508Z,1.30
2019-03-15T10:25:28.532Z,1.20
2019-03-15T10:26:28.440Z,1.50
2019-03-15T10:27:28.537Z,1.20
2019-03-15T10:28:28.591Z,1.10
2019-03-15T10:29:28.475Z,1.30
2019-03-15T10:30:28.406Z,1.10
2019-03-15T10:31:28.394Z,1.70
2019-03-15T10:32:28.379Z,1.20
2019-03-15T10:33:28.357Z,1.20
2019-03-15T10:34:28.358Z,1.50
2019-03-15T10:35:28.361Z,1.70
2019-03-15T10:36:28.338Z,1.20
2019-03-15T10:37:28.315Z,1.00
2019-03-15T10:38:40.917Z,0.90
2019-03-15T10:39:28.330Z,1.10
2019-03-15T10:40:28.287Z,1.30
2019-03-15T10:41:28.285Z,1.20
2019-03-15T10:42:28.259Z,1.60
2019-03-15T10:43:28.251Z,1.70
2019-03-15T10:44:28.243Z,1.20
2019-03-15T10:45:28.239Z,1.10
2019-03-15T10:46:28.302Z,1.10
2019-03-15T10:47:28.206Z,1.40
2019-03-15T10:48:28.195Z,1.50
2019-03-15T10:49:30.697Z,1.40
2019-03-15T10:50:28.219Z,1.40
2019-03-15T10:51:28.176Z,1.80
2019-03-15T10:52:28.205Z,1.40
2019-03-15T10:53:28.141Z,1.30
2019-03-15T10:54:28.125Z,1.30
2019-03-15T10:55:28.130Z,2.10
2019-03-15T10:56:28.239Z,1.30
2019-03-15T10:57:28.095Z,1.80
2019-03-15T10:58:28.094Z,1.50
2019-03-15T10:59:28.078Z,1.40
2019-03-15T11:00:28.068Z,1.20
2019-03-15T11:01:28.128Z,1.30
2019-03-15T11:02:28.037Z,1.90
2019-03-15T11:03:28.121Z,1.40
2019-03-15T11:04:28.030Z,2.00
2019-03-15T11:05:28.005Z,1.40
2019-03-15T11:06:28.000Z,1.70
2019-03-15T11:07:27.988Z,2.50
2019-03-15T11:08:27.971Z,1.70
2019-03-15T11:09:40.666Z,1.20
2019-03-15T11:10:27.972Z,1.40
2019-03-15T11:11:28.078Z,2.20
2019-03-15T11:12:27.927Z,1.50
2019-03-15T11:13:27.920Z,1.30
2019-03-15T11:14:28.025Z,1.50
2019-03-15T11:15:27.895Z,1.60
2019-03-15T11:16:27.885Z,1.90
2019-03-15T11:17:27.891Z,1.70
2019-03-15T11:18:27.875Z,1.90
2019-03-15T11:19:27.858Z,2.60
2019-03-15T11:20:27.849Z,3.00
2019-03-15T11:21:27.839Z,2.60
2019-03-15T11:22:27.828Z,2.50
2019-03-15T11:23:27.825Z,2.80
2019-03-15T11:24:27.800Z,1.90
2019-03-15T11:25:27.814Z,1.90
2019-03-15T11:26:28.170Z,3.10
2019-03-15T11:27:27.774Z,4.10
2019-03-15T11:28:27.838Z,2.40
2019-03-15T11:29:27.742Z,3.40
2019-03-15T11:30:27.751Z,3.30
2019-03-15T11:31:27.750Z,3.60
2019-03-15T11:32:27.715Z,3.20
2019-03-15T11:33:27.695Z,4.30
2019-03-15T11:34:28.664Z,2.90
2019-03-15T11:35:27.689Z,5.00
2019-03-15T11:36:27.664Z,4.30
2019-03-15T11:37:27.673Z,3.20
2019-03-15T11:38:27.642Z,3.50
2019-03-15T11:39:28.167Z,2.80
2019-03-15T11:40:40.594Z,4.30
2019-03-15T11:41:27.631Z,4.20
2019-03-15T11:42:27.636Z,3.40
2019-03-15T11:43:27.582Z,5.60
2019-03-15T11:44:27.577Z,3.60
2019-03-15T11:45:27.567Z,4.40
2019-03-15T11:46:27.549Z,3.00
2019-03-15T11:47:27.549Z,4.00
2019-03-15T11:48:27.671Z,5.40
2019-03-15T11:49:28.415Z,5.50
2019-03-15T11:50:27.527Z,4.40
2019-03-15T11:51:27.517Z,6.90
2019-03-15T11:52:27.488Z,3.70
2019-03-15T11:53:27.478Z,4.00
2019-03-15T11:54:27.529Z,2.40
2019-03-15T11:55:27.457Z,3.00
2019-03-15T11:56:27.493Z,3.80
2019-03-15T11:57:27.459Z,3.10
2019-03-15T11:58:27.425Z,2.80
2019-03-15T11:59:27.411Z,3.20
2019-03-15T12:00:27.515Z,3.10
2019-03-15T12:01:27.402Z,2.80
2019-03-15T12:02:27.442Z,2.60
2019-03-15T12:03:27.384Z,4.20
2019-03-15T12:04:27.355Z,3.20
2019-03-15T12:05:27.347Z,2.60
2019-03-15T12:06:27.367Z,3.70
2019-03-15T12:07:27.337Z,4.20
2019-03-15T12:08:27.322Z,2.10
2019-03-15T12:09:27.301Z,3.20
2019-03-15T12:10:27.334Z,2.70
2019-03-15T12:11:40.239Z,2.20
2019-03-15T12:12:27.301Z,2.30
2019-03-15T12:13:27.257Z,3.70
2019-03-15T12:14:40.198Z,2.70
2019-03-15T12:15:28.227Z,2.10
2019-03-15T12:16:27.226Z,1.70
2019-03-15T12:17:27.216Z,2.10
2019-03-15T12:18:27.294Z,2.00
2019-03-15T12:19:27.192Z,3.60
2019-03-15T12:20:27.253Z,1.70
2019-03-15T12:21:27.193Z,1.60
2019-03-15T12:22:27.161Z,2.30
2019-03-15T12:23:27.155Z,3.20
2019-03-15T12:24:27.164Z,1.80
2019-03-15T12:25:27.132Z,2.80
2019-03-15T12:26:39.463Z,2.00
2019-03-15T12:27:28.102Z,1.90
2019-03-15T12:28:27.093Z,2.30
2019-03-15T12:29:27.090Z,3.00
2019-03-15T12:30:27.065Z,1.70
2019-03-15T12:31:27.063Z,2.10
2019-03-15T12:32:27.080Z,2.10
2019-03-15T12:33:27.029Z,3.60
2019-03-15T12:34:27.038Z,2.80
2019-03-15T12:35:27.033Z,1.80
2019-03-15T12:36:27.005Z,5.10
2019-03-15T12:37:27.033Z,2.20
2019-03-15T12:38:26.975Z,2.70
2019-03-15T12:39:26.973Z,2.20
2019-03-15T12:40:27.169Z,2.50
2019-03-15T12:41:26.948Z,1.80
2019-03-15T12:42:38.906Z,2.10
2019-03-15T12:43:26.921Z,1.80
2019-03-15T12:44:26.914Z,2.90
2019-03-15T12:45:26.904Z,4.20
2019-03-15T12:46:26.926Z,3.50
2019-03-15T12:47:26.881Z,3.00
2019-03-15T12:48:26.871Z,3.30
2019-03-15T12:49:26.863Z,3.10
2019-03-15T12:50:26.854Z,2.60
2019-03-15T12:51:32.037Z,3.10
2019-03-15T12:52:27.836Z,2.40
2019-03-15T12:53:26.815Z,2.90
2019-03-15T12:54:26.803Z,2.30
2019-03-15T12:55:26.793Z,2.70
2019-03-15T12:56:26.835Z,1.70
2019-03-15T12:57:26.807Z,2.10
2019-03-15T12:58:26.760Z,2.20
2019-03-15T12:59:26.800Z,2.40
2019-03-15T13:00:26.737Z,2.00
2019-03-15T13:01:26.749Z,2.30
2019-03-15T13:02:26.715Z,2.20
2019-03-15T13:03:26.783Z,2.10
2019-03-15T13:04:26.747Z,2.60
2019-03-15T13:05:26.688Z,3.10
2019-03-15T13:06:26.704Z,3.60
2019-03-15T13:07:26.665Z,2.50
2019-03-15T13:08:26.651Z,2.40
2019-03-15T13:09:26.644Z,2.20
2019-03-15T13:10:26.642Z,1.90
2019-03-15T13:11:26.688Z,1.90
2019-03-15T13:12:26.601Z,2.10
2019-03-15T13:13:39.346Z,1.80